createdAt,value
2023-01-27T02:08:41.405Z,-3.70
2023-01-27T02:11:10.437Z,-3.59
2023-01-27T02:13:39.782Z,-3.58
2023-01-27T02:16:10.889Z,-3.55
2023-01-27T02:18:42.715Z,-3.55
2023-01-27T02:21:11.603Z,-3.56
2023-01-27T02:23:48.823Z,-3.55
2023-01-27T02:26:47.612Z,-3.56
2023-01-27T02:29:16.728Z,-3.54
2023-01-27T02:31:46.168Z,-3.53
2023-01-27T02:34:21.095Z,-3.53
2023-01-27T02:36:51.637Z,-3.52
2023-01-27T02:39:22.700Z,-3.50
2023-01-27T02:41:53.272Z,-3.52
2023-01-27T02:44:22.129Z,-3.54
2023-01-27T02:46:51.469Z,-3.54
2023-01-27T02:49:20.748Z,-3.51
2023-01-27T02:51:50.233Z,-3.46
2023-01-27T02:54:19.431Z,-3.46
2023-01-27T02:56:48.731Z,-3.50
2023-01-27T02:59:20.077Z,-3.53
2023-01-27T03:01:49.455Z,-3.57
2023-01-27T03:04:18.296Z,-3.54
2023-01-27T03:06:49.468Z,-3.47
2023-01-27T03:09:18.611Z,-3.41
2023-01-27T03:12:06.213Z,-3.34
2023-01-27T03:14:55.402Z,-3.30
2023-01-27T03:17:43.340Z,-3.29
2023-01-27T03:20:12.658Z,-3.30
2023-01-27T03:22:42.388Z,-3.34
2023-01-27T03:25:14.473Z,-3.36
2023-01-27T03:27:44.035Z,-3.40
2023-01-27T03:30:29.338Z,-3.44
2023-01-27T03:33:10.986Z,-3.44
2023-01-27T03:36:14.394Z,-3.43
2023-01-27T03:39:10.333Z,-3.36
2023-01-27T03:41:58.255Z,-3.33
2023-01-27T03:44:47.307Z,-3.31
2023-01-27T03:47:16.306Z,-3.31
2023-01-27T03:49:45.604Z,-3.29
2023-01-27T03:52:14.560Z,-3.29
2023-01-27T03:54:43.747Z,-3.29
2023-01-27T03:57:12.557Z,-3.29
2023-01-27T03:59:41.584Z,-3.27
2023-01-27T04:02:29.107Z,-3.29
2023-01-27T04:05:18.998Z,-3.30
2023-01-27T04:07:48.588Z,-3.27
2023-01-27T04:10:17.584Z,-3.23
2023-01-27T04:12:51.390Z,-3.24
2023-01-27T04:15:20.899Z,-3.23
2023-01-27T04:17:50.399Z,-3.20
2023-01-27T04:20:20.126Z,-3.14
2023-01-27T04:22:49.210Z,-3.06
2023-01-27T04:25:19.057Z,-2.99
2023-01-27T04:27:48.109Z,-2.91
2023-01-27T04:30:18.326Z,-2.85
2023-01-27T04:32:51.113Z,-2.76
2023-01-27T04:35:23.366Z,-2.66
2023-01-27T04:37:54.357Z,-2.55
2023-01-27T04:40:23.273Z,-2.44
2023-01-27T04:42:54.594Z,-2.33
2023-01-27T04:45:23.356Z,-2.22
2023-01-27T04:47:52.421Z,-2.13
2023-01-27T04:50:21.247Z,-2.11
2023-01-27T04:52:50.069Z,-2.06
2023-01-27T04:55:19.830Z,-1.99
2023-01-27T04:57:48.621Z,-1.88
2023-01-27T05:00:18.346Z,-1.85
2023-01-27T05:02:49.783Z,-1.83
2023-01-27T05:05:18.550Z,-1.77
2023-01-27T05:07:47.805Z,-1.71
2023-01-27T05:10:17.988Z,-1.63
2023-01-27T05:12:47.795Z,-1.57
2023-01-27T05:15:17.512Z,-1.58
2023-01-27T05:17:47.127Z,-1.56
2023-01-27T05:20:17.155Z,-1.60
2023-01-27T05:22:46.430Z,-1.60
2023-01-27T05:25:15.715Z,-1.64
2023-01-27T05:27:44.983Z,-1.66
2023-01-27T05:30:14.588Z,-1.63
2023-01-27T05:32:44.991Z,-1.60
2023-01-27T05:35:14.805Z,-1.62
2023-01-27T05:37:43.963Z,-1.61
2023-01-27T05:40:13.678Z,-1.57
2023-01-27T05:42:46.011Z,-1.50
2023-01-27T05:45:15.424Z,-1.47
2023-01-27T05:47:46.190Z,-1.41
2023-01-27T05:50:17.405Z,-1.36
2023-01-27T05:52:46.784Z,-1.34
2023-01-27T05:55:18.246Z,-1.35
2023-01-27T05:57:54.989Z,-1.33
2023-01-27T06:00:24.565Z,-1.30
2023-01-27T06:02:55.640Z,-1.30
2023-01-27T06:05:24.611Z,-1.29
2023-01-27T06:07:54.402Z,-1.25
2023-01-27T06:10:24.629Z,-1.23
2023-01-27T06:12:53.826Z,-1.25
2023-01-27T06:15:23.219Z,-1.22
2023-01-27T06:17:52.880Z,-1.19
2023-01-27T06:20:22.853Z,-1.18
2023-01-27T06:22:51.648Z,-1.21
2023-01-27T06:25:21.046Z,-1.19
2023-01-27T06:27:56.355Z,-1.14
2023-01-27T06:30:25.187Z,-1.10
2023-01-27T06:33:01.536Z,-1.06
2023-01-27T06:35:39.246Z,-1.01
2023-01-27T06:38:12.513Z,-0.92
2023-01-27T06:40:41.978Z,-0.81
2023-01-27T06:43:14.688Z,-0.72
2023-01-27T06:45:43.554Z,-0.64
2023-01-27T06:48:15.950Z,-0.57
2023-01-27T06:50:44.682Z,-0.48
2023-01-27T06:53:17.266Z,-0.41
2023-01-27T06:55:46.672Z,-0.29
2023-01-27T06:58:16.469Z,-0.16
2023-01-27T07:00:45.978Z,-0.04
2023-01-27T07:03:18.278Z,0.08
2023-01-27T07:05:47.740Z,0.19
2023-01-27T11:16:02.236Z,1.85
2023-01-27T11:18:36.741Z,2.07
2023-01-27T11:21:07.305Z,2.11
2023-01-27T11:23:40.922Z,2.12
2023-01-27T11:26:16.294Z,2.10
2023-01-27T11:29:03.459Z,2.10
2023-01-27T11:31:56.986Z,2.14
2023-01-27T11:34:54.281Z,2.18
2023-01-27T11:37:31.624Z,2.23
2023-01-27T11:40:00.620Z,2.27
2023-01-27T11:42:35.190Z,2.29
2023-01-27T11:45:04.655Z,2.36
2023-01-27T11:47:38.997Z,2.47
2023-01-27T11:50:13.769Z,2.60
2023-01-27T11:52:43.775Z,2.79
2023-01-27T11:55:22.450Z,3.07
2023-01-27T11:57:58.118Z,3.48
2023-01-27T12:00:31.926Z,4.09
2023-01-27T12:03:28.997Z,4.87
2023-01-27T12:06:03.074Z,5.66
2023-01-27T12:08:50.711Z,6.22
2023-01-27T12:11:24.401Z,6.50
2023-01-27T12:14:02.582Z,6.81
2023-01-27T12:16:34.797Z,7.46
2023-01-27T12:19:18.074Z,8.21
2023-01-27T12:21:50.151Z,8.96
2023-01-27T12:24:27.947Z,9.54
2023-01-27T12:26:56.760Z,10.08
2023-01-27T12:29:29.661Z,10.52
2023-01-27T12:32:06.250Z,10.76
2023-01-27T12:34:36.962Z,10.77
2023-01-27T12:37:06.965Z,10.70
2023-01-27T12:57:48.889Z,7.89
2023-01-27T13:00:19.510Z,7.81
2023-01-27T13:02:48.696Z,7.95
2023-01-27T13:05:19.423Z,8.13
2023-01-27T13:07:50.869Z,8.30
2023-01-27T13:10:23.985Z,8.30
2023-01-27T13:12:56.365Z,8.34
2023-01-27T13:15:30.800Z,8.30
2023-01-27T13:18:00.085Z,8.22
2023-01-27T13:20:51.637Z,8.05
2023-01-27T13:23:23.807Z,7.75
2023-01-27T13:26:10.054Z,7.49
2023-01-27T13:28:53.436Z,7.13
2023-01-27T13:31:59.807Z,6.82
2023-01-27T13:34:49.846Z,6.37
2023-01-27T13:37:34.274Z,6.05
2023-01-27T13:40:30.846Z,5.80
2023-01-27T13:43:05.738Z,5.40
2023-01-27T13:45:46.427Z,5.15
2023-01-27T13:48:22.895Z,5.00
2023-01-27T13:51:06.874Z,4.86
2023-01-27T13:53:35.640Z,4.76
2023-01-27T13:56:19.470Z,4.67
2023-01-27T13:59:21.202Z,4.53
2023-01-27T14:02:01.893Z,4.36
2023-01-27T14:04:32.084Z,4.18
2023-01-27T14:07:38.998Z,4.03
2023-01-27T14:10:49.973Z,3.89
2023-01-27T14:13:42.830Z,3.67
2023-01-27T14:16:14.785Z,3.52
2023-01-27T14:18:47.339Z,3.38
2023-01-27T14:21:39.824Z,3.26
2023-01-27T14:24:21.468Z,3.11
2023-01-27T14:26:53.051Z,3.04
2023-01-27T14:29:51.121Z,2.90
2023-01-27T14:32:35.684Z,2.77
2023-01-27T14:35:07.891Z,2.64
2023-01-27T14:37:38.071Z,2.48
2023-01-27T14:40:37.574Z,2.36
2023-01-27T14:43:26.760Z,2.20
2023-01-27T14:46:16.073Z,2.10
2023-01-27T14:49:10.613Z,2.10
2023-01-27T14:51:51.080Z,2.12
2023-01-27T14:54:52.012Z,2.12
2023-01-27T14:57:25.943Z,2.11
2023-01-27T15:00:23.999Z,2.06
2023-01-27T15:03:23.542Z,2.04
2023-01-27T15:06:02.345Z,2.04
2023-01-27T15:09:09.302Z,2.02
2023-01-27T15:11:38.291Z,1.94
2023-01-27T15:14:22.449Z,1.89
2023-01-27T15:17:12.869Z,1.89
2023-01-27T15:20:13.658Z,1.89
2023-01-27T15:23:04.358Z,1.87
2023-01-27T15:25:36.663Z,1.86
2023-01-27T15:28:05.846Z,1.81
2023-01-27T15:30:37.548Z,1.75
2023-01-27T15:33:44.794Z,1.66
2023-01-27T15:36:27.868Z,1.61
2023-01-27T15:39:10.739Z,1.62
2023-01-27T15:41:54.775Z,1.64
2023-01-27T15:44:31.563Z,1.67
2023-01-27T15:47:08.532Z,1.70
2023-01-27T15:49:42.855Z,1.73
2023-01-27T15:52:19.123Z,1.76
2023-01-27T15:54:50.279Z,1.79
2023-01-27T15:57:24.778Z,1.81
2023-01-27T15:59:59.162Z,1.81
2023-01-27T16:02:29.688Z,1.79
2023-01-27T16:05:16.208Z,1.79
2023-01-27T16:07:51.262Z,1.79
2023-01-27T16:10:22.637Z,1.79
2023-01-27T16:13:13.108Z,1.78
2023-01-27T16:15:47.218Z,1.75
2023-01-27T20:18:33.913Z,-0.90
2023-01-27T20:21:02.342Z,-0.83
2023-01-27T20:23:30.343Z,-0.85
2023-01-27T20:25:58.321Z,-0.86
2023-01-27T20:28:28.009Z,-0.86
2023-01-27T20:30:56.270Z,-0.86
2023-01-27T20:33:25.420Z,-0.86
2023-01-27T20:35:54.367Z,-0.88
2023-01-27T20:38:25.687Z,-0.88
2023-01-27T20:40:54.462Z,-0.89
2023-01-27T20:43:34.773Z,-0.89
2023-01-27T20:46:07.895Z,-0.90
2023-01-27T20:48:35.877Z,-0.91
2023-01-27T20:51:09.017Z,-0.94
2023-01-27T20:53:43.217Z,-0.96
2023-01-27T20:56:21.227Z,-0.97
2023-01-27T20:58:49.504Z,-0.97
2023-01-27T21:01:22.162Z,-0.98
2023-01-27T21:03:50.233Z,-0.97
2023-01-27T21:06:19.621Z,-0.96
2023-01-27T21:08:48.786Z,-0.93
2023-01-27T21:11:18.363Z,-0.91
2023-01-27T21:13:48.015Z,-0.87
2023-01-27T21:16:15.824Z,-0.87
2023-01-27T21:18:55.444Z,-0.88
2023-01-27T21:21:25.117Z,-0.87
2023-01-27T21:24:00.482Z,-0.87
2023-01-27T21:26:28.383Z,-0.88
2023-01-27T21:28:57.160Z,-0.88
2023-01-27T21:31:29.853Z,-0.89
2023-01-27T21:34:01.296Z,-0.90
2023-01-27T21:36:30.303Z,-0.88
2023-01-27T21:39:02.129Z,-0.86
2023-01-27T21:41:50.837Z,-0.84
2023-01-27T21:44:45.773Z,-0.83
2023-01-27T21:47:19.304Z,-0.81
2023-01-27T21:50:02.586Z,-0.81
2023-01-27T21:52:50.608Z,-0.81
2023-01-27T21:55:23.349Z,-0.80
2023-01-27T21:57:51.899Z,-0.78
2023-01-27T22:00:43.956Z,-0.78
2023-01-27T22:03:11.269Z,-0.77
2023-01-27T22:05:40.275Z,-0.78
2023-01-27T22:08:27.841Z,-0.84
2023-01-27T22:11:06.226Z,-0.87
2023-01-27T22:13:34.790Z,-0.89
2023-01-27T22:16:04.545Z,-1.01
2023-01-27T22:18:32.403Z,-1.10
2023-01-27T22:21:01.072Z,-1.18
2023-01-27T22:23:28.603Z,-1.22
2023-01-27T22:25:57.775Z,-1.22
2023-01-27T22:28:26.401Z,-1.24
2023-01-27T22:30:54.212Z,-1.26
2023-01-27T22:33:24.076Z,-1.24
2023-01-27T22:36:02.955Z,-1.22
2023-01-27T22:38:30.689Z,-1.22
2023-01-27T22:40:58.330Z,-1.23
2023-01-27T22:43:26.835Z,-1.25
2023-01-27T22:45:54.229Z,-1.28
2023-01-27T22:48:22.220Z,-1.29
2023-01-27T22:50:49.586Z,-1.34
2023-01-27T22:53:17.159Z,-1.34
2023-01-27T22:55:44.578Z,-1.30
2023-01-27T22:58:14.109Z,-1.30
2023-01-27T23:00:42.195Z,-1.30
2023-01-27T23:03:12.589Z,-1.33
2023-01-27T23:05:40.988Z,-1.33
2023-01-27T23:08:09.267Z,-1.34
2023-01-27T23:10:38.982Z,-1.36
2023-01-27T23:13:07.956Z,-1.39
2023-01-27T23:15:45.963Z,-1.40
2023-01-27T23:18:13.306Z,-1.43
2023-01-27T23:20:41.789Z,-1.50
2023-01-27T23:23:10.360Z,-1.54
2023-01-27T23:25:44.691Z,-1.56
2023-01-27T23:28:13.045Z,-1.59
2023-01-27T23:31:05.026Z,-1.61
2023-01-27T23:33:40.659Z,-1.64
2023-01-27T23:36:08.835Z,-1.65
2023-01-27T23:38:36.478Z,-1.64
2023-01-27T23:41:08.132Z,-1.61
2023-01-27T23:43:35.591Z,-1.59
2023-01-27T23:46:03.082Z,-1.58
2023-01-27T23:48:32.516Z,-1.61
2023-01-27T23:51:06.331Z,-1.68
2023-01-27T23:53:33.747Z,-1.75
2023-01-27T23:56:01.279Z,-1.82
2023-01-27T23:58:28.964Z,-1.89
